Main page
METAR-TAF:

METAR-TAF

Airports :

Multan International Airport

Multan, Pakistan

latitude: 30-12-12N, longitude: 71-25-09E, elevation: 122 m

Current weather observation

The report was made 29 minutes ago, at 03:00 UTC
Calm wind
Temperature 15°C
Humidity 77%
Pressure 1014 hPa
Visibility: 4000 m
smoke

METAR: OPMT 010300Z 00000KT 4000 FU NSC 15/11 Q1014 NOSIG

Time: 08:29 (03:29 UTC)

Forecast

The report was made 5 hours and 44 minutes ago, at 21:45 UTC
Forecast valid from 01 at 00 UTC to 01 at 18 UTC
Wind 10 kt from the North
Visibility: 5000 m
Few clouds at a height of 10000 ft
haze
Probability 30% :
Temporary
from 01 at 01 UTC to 01 at 04 UTC
Wind kt from the North
Visibility: 2000 m
smoke

TAF: OPMT 282145Z 0100/0118 36010KT 5000 HZ FEW100 TN12/0101Z TX28/0110Z PROB30 TEMPO 0101/0104 00000KT 2000 FU NSC

Weather observations and forecasts of more than 4000 airports (METAR and TAF reports).

The available stations are represented by yellow and red dots on the map.

Hover mouse over dot to see the name of the station.

Then click to see weather observations and forecasts.

To change the map : click on the green buttons with a black cross to zoom in, on the green button with a dash to zoom out, or on the green arrows for adjacent maps.


METAR-TAF: